LFSB 260600Z 24011KT 9999 -SHRA FEW023 FEW030TCU SCT036 BKN080 04/M00 Q1003 TEMPO 26020G35KT 4000 SHRAGS SCT025CB

ElémentsDécodage
LFSB Station météo située sur l'aérodrome de BALE Mulhouse
260600Z émis le 26 du mois à 06h00 UTC
24011KT vent du 240°, 11 noeuds
9999 visibilité horizontale supérieure à 10 Km
-SHRA faible averse(s) de pluie
FEW023 nuages rares (1/8 à 2/8) à 2300 pieds
FEW030TCU nuages rares (1/8 à 2/8) à 3000 pieds
 présence de cumulus congestus
SCT036 nuages épars (3/8 à 4/8) à 3600 pieds
BKN080 nuages morcelés (5/8 à 7/8) à 8000 pieds
04/M00 température 04°C, point de rosée 00°C
 soit une humidité relative de 75%
Q1003 la pression au niveau de la mer (QNH) est de 1003 hPa
TEMPO fluctuation temporaire prévue
26020G35KT vent du 260°, moyenne: 20 noeuds, avec rafales à 35 noeuds
4000 visibilité horizontale de 4000 mètres
SHRAGS élement non décodé
SCT025CB nuages épars (3/8 à 4/8) à 2500 pieds
 présence de cumulonimbus